EGHIEGJB

Guest
Details From EGHI - Southampton
To EGJB - Guernsey
Flight Number -
Tags generated
Created
Modified
Stats Distance 103 nm / 190 km
Max Altitude 0 ft / 0 m
Waypoints 3
Social Downloads 1
Likes 0
Share VATSIM

Download

Looking for another format? Having issues loading an existing format? Contact us
Advertisement - Login to hide

Notes

Basic altitude profile: - Ascent Rate: 2500ft/min - Ascent Speed: 250kts - Cruise Altitude: 180ft - Cruise Speed: 300kts - Descent Rate: 3000ft/min - Descent Speed: 250kts Options: - Use NATs: yes - Use PACOTS: yes - Use low airways: yes - Use high airways: yes

Route

EGHI GUR EGJB

ID Type Via Altitude Latitude Longitude Leg Dist Tot Dist Heading (true) Name
O EGHI APT - 0 ft / 0 m 50.95026˚ -1.35681˚ - 0 nm - Southampton
GUR VOR - 0 ft / 0 m 49.43710˚ -2.60206˚ 102 nm 102 nm 208° / 207° GUERNSEY VOR-DME
O EGJB APT - 0 ft / 0 m 49.43495˚ -2.60197˚ 0 nm 102 nm 178° / 178° Guernsey

Altitude Profile

Advertisement - Login to hide

EGHI

Details ICAO EGHI (SOU)
Name Southampton
Region United Kingdom
Timezone Europe/London (UTC+0.0)
Stats Elevation 44 ft / 13 m (AMSL)
Location 50.950255° -1.356806°
Runways 1
Magnetic Variation 0.813° W

METAR

EGHI 141320Z 25009KT 210V280 9999 VCSH FEW025 SCT035 05/01 Q0991

Decode

TAF

Not found

Departure Runways

ID Width Length Bearing (true) Bearing (mag) Surface Threshold Offset Overrun Length
02 121 ft / 37 m 5,650 ft / 1,722 m 19.33° 20.14° Asphalt 240 ft / 73 m 0 ft / 0 m
20 121 ft / 37 m 5,650 ft / 1,722 m 199.34° 200.15° Asphalt 144 ft / 44 m 0 ft / 0 m

EGJB

Details ICAO EGJB (GCI)
Name Guernsey
Region United Kingdom
Timezone Europe/Guernsey (UTC+0.0)
Stats Elevation 336 ft / 102 m (AMSL)
Location 49.434955° -2.601970°
Runways 1
Magnetic Variation 1.067° W

METAR

EGJB 141320Z 26017KT 9999 VCSH FEW015CB 06/03 Q0995

Decode

TAF

Not found

Destination Runways

ID Width Length Bearing (true) Bearing (mag) Surface Threshold Offset Overrun Length
09 148 ft / 45 m 4,753 ft / 1,449 m 87.56° 88.63° Asphalt 0 ft / 0 m 0 ft / 0 m
27 148 ft / 45 m 4,753 ft / 1,449 m 267.57° 268.64° Asphalt 0 ft / 0 m 272 ft / 83 m

Approach Navaids

Runway Type Ident Frequency Range Bearing (true) Bearing (mag) Slope Elevation
09 Localiser IUY 108.10 MHz 18 nm / 33 km 87.59° 88.66° - 336 ft / 102 m (AMSL)
09 Glidescope IUY 108.10 MHz 10 nm / 19 km 87.57° 88.63° 3.00° 336 ft / 102 m (AMSL)
27 Localiser IGH 108.10 MHz 18 nm / 33 km 267.57° 268.63° - 336 ft / 102 m (AMSL)
27 Glidescope IGH 108.10 MHz 10 nm / 19 km 267.57° 268.63° 3.00° 336 ft / 102 m (AMSL)
27 DME IGH 108.10 MHz 18 nm / 33 km - - - 336 ft / 102 m (AMSL)

Popular Alternatives